Time;durP1;ratioP1;P1;durP2;ratioP2;P2;SDS_P1;SDS_P2;PMS_P1;PMS_P2;Temp;Humidity;BMP_temperature;BMP_pressure;BME280_temperature;BME280_humidity;BME280_pressure;Samples;Min_cycle;Max_cycle;Signal;HPM_P1;HPM_P2
2022/10/28 00:00:45;;;;;;;3.87;1.70;;;22.60;52.40;21.60;101498.00;;;;5070122;28;20032;-74
2022/10/28 00:03:10;;;;;;;4.37;2.30;;;22.60;52.50;21.60;101492.00;;;;5069787;28;20068;-74
2022/10/28 00:05:36;;;;;;;3.77;1.40;;;22.60;52.50;21.60;101491.00;;;;5069199;28;20066;-74
2022/10/28 00:08:02;;;;;;;3.00;1.77;;;22.50;52.40;21.60;101489.00;;;;5076565;28;20099;-74
2022/10/28 00:10:28;;;;;;;4.90;1.70;;;22.60;52.50;21.60;101482.00;;;;5068823;28;21026;-74
2022/10/28 00:12:53;;;;;;;3.33;1.90;;;22.60;52.50;21.60;101486.00;;;;5069188;28;20029;-74
2022/10/28 00:15:19;;;;;;;3.60;1.90;;;22.50;52.40;21.60;101484.00;;;;5073350;28;20044;-74
2022/10/28 00:17:45;;;;;;;1.70;1.40;;;22.60;52.50;21.60;101481.00;;;;5056244;28;20031;-74
2022/10/28 00:20:11;;;;;;;2.57;1.70;;;22.60;52.50;21.60;101478.00;;;;5071598;28;20531;-74
2022/10/28 00:22:36;;;;;;;2.60;1.48;;;22.60;52.50;21.60;101482.00;;;;5073293;28;20028;-74
2022/10/28 00:25:03;;;;;;;4.43;1.83;;;22.60;52.50;21.60;101478.00;;;;5072397;28;20358;-74
2022/10/28 00:27:28;;;;;;;3.60;2.05;;;22.60;52.50;21.60;101472.00;;;;5055365;28;20037;-74
2022/10/28 00:29:54;;;;;;;3.03;2.00;;;22.60;52.50;21.60;101474.00;;;;5072828;28;20077;-74
2022/10/28 00:32:20;;;;;;;2.70;1.75;;;22.60;52.50;21.60;101474.00;;;;5072892;28;20047;-74
2022/10/28 00:34:46;;;;;;;3.97;1.87;;;22.60;52.50;21.60;101468.00;;;;5072269;28;20039;-74
2022/10/28 00:37:12;;;;;;;2.45;1.70;;;22.60;52.50;21.60;101460.00;;;;5079162;28;20462;-74
2022/10/28 00:39:38;;;;;;;2.87;1.70;;;22.60;52.50;21.60;101454.00;;;;5053507;28;20430;-74
2022/10/28 00:42:05;;;;;;;3.00;1.57;;;22.60;52.50;21.60;101453.00;;;;5073075;28;20477;-74
2022/10/28 00:45:16;;;;;;;3.45;1.95;;;22.60;52.50;21.60;101448.00;;;;5071768;28;20025;-74
2022/10/28 00:47:54;;;;;;;2.97;1.70;;;22.60;52.50;21.60;101456.00;;;;5066590;28;20049;-74
2022/10/28 00:50:25;;;;;;;;;;;22.60;52.50;21.50;101456.00;;;;5053183;28;20043;-74
2022/10/28 00:53:03;;;;;;;2.85;1.60;;;22.60;52.50;21.50;101456.00;;;;5072647;28;20366;-74
2022/10/28 00:55:29;;;;;;;3.85;1.92;;;22.60;52.40;21.50;101448.00;;;;5062683;28;20051;-74
2022/10/28 00:57:55;;;;;;;3.07;1.60;;;22.60;52.50;21.50;101440.00;;;;5054141;28;20035;-74
2022/10/28 01:00:22;;;;;;;3.40;1.65;;;22.60;52.50;21.50;101440.00;;;;5064726;28;20044;-74
2022/10/28 01:02:48;;;;;;;2.20;1.35;;;22.60;52.50;21.50;101442.00;;;;5054551;28;20020;-74
2022/10/28 01:05:25;;;;;;;2.78;1.90;;;22.60;52.50;21.50;101435.00;;;;5058309;28;20040;-74
2022/10/28 01:07:54;;;;;;;3.17;1.90;;;22.60;52.50;21.60;101429.00;;;;5067882;28;20477;-74
2022/10/28 01:10:20;;;;;;;4.57;1.92;;;22.50;52.50;21.60;101438.00;;;;5051107;28;20029;-74
2022/10/28 01:13:06;;;;;;;3.45;1.70;;;22.50;52.50;21.60;101424.00;;;;5060346;28;20089;-74
2022/10/28 01:15:47;;;;;;;6.00;2.10;;;22.50;52.50;21.50;101424.00;;;;5054334;28;20497;-74
2022/10/28 01:18:38;;;;;;;3.50;1.70;;;22.50;52.50;21.50;101430.00;;;;5035590;28;20035;-74
2022/10/28 01:21:31;;;;;;;3.88;1.95;;;22.50;52.50;21.50;101425.00;;;;5069995;28;20089;-74
2022/10/28 01:24:27;;;;;;;2.53;1.83;;;22.50;52.50;21.50;101422.00;;;;5054370;28;20028;-75
2022/10/28 01:27:03;;;;;;;3.45;1.77;;;22.50;52.60;21.50;101427.00;;;;5070061;28;20055;-74
2022/10/28 01:30:02;;;;;;;3.63;1.67;;;22.50;52.60;21.50;101427.00;;;;5054030;28;20020;-74
2022/10/28 01:32:58;;;;;;;4.22;1.90;;;22.60;52.70;21.50;101424.00;;;;5071816;28;20111;-74
2022/10/28 01:35:32;;;;;;;3.33;1.65;;;22.50;52.60;21.50;101427.00;;;;5054385;28;20043;-74
2022/10/28 01:38:31;;;;;;;3.58;1.80;;;22.50;52.60;21.50;101427.00;;;;5071705;28;20062;-74
2022/10/28 01:41:39;;;;;;;2.50;1.70;;;22.60;52.70;21.50;101417.00;;;;5038025;28;20040;-74
2022/10/28 01:44:26;;;;;;;2.67;1.70;;;22.60;52.70;21.50;101410.00;;;;5036635;28;20043;-74
2022/10/28 01:47:13;;;;;;;2.53;1.70;;;22.50;52.60;21.50;101402.00;;;;5058996;28;20041;-74
2022/10/28 01:50:07;;;;;;;4.33;1.87;;;22.50;52.60;21.50;101413.00;;;;5053057;28;20029;-75
2022/10/28 01:52:33;;;;;;;2.85;1.75;;;22.60;52.70;21.50;101409.00;;;;5032419;28;20036;-74
2022/10/28 01:55:15;;;;;;;3.17;1.77;;;22.50;52.60;21.50;101404.00;;;;5033593;28;20029;-74
2022/10/28 01:57:41;;;;;;;2.97;1.77;;;22.50;52.60;21.50;101399.00;;;;5036830;28;20991;-74
2022/10/28 02:00:07;;;;;;;5.05;2.45;;;22.50;52.60;21.50;101393.00;;;;5052119;28;20036;-74
2022/10/28 02:02:34;;;;;;;4.47;2.22;;;22.60;52.70;21.50;101396.00;;;;5053938;28;20033;-74
2022/10/28 02:05:46;;;;;;;6.60;1.90;;;22.50;52.60;21.50;101385.00;;;;5054256;28;20028;-74
2022/10/28 02:08:21;;;;;;;2.63;1.83;;;22.50;52.60;21.50;101392.00;;;;5051721;28;20723;-74
2022/10/28 02:10:59;;;;;;;2.35;1.70;;;22.60;52.60;21.50;101386.00;;;;5052643;28;20082;-74
2022/10/28 02:14:04;;;;;;;3.88;1.95;;;22.50;52.60;21.50;101381.00;;;;5071105;28;20093;-74
2022/10/28 02:16:40;;;;;;;3.33;1.73;;;22.50;52.60;21.50;101382.00;;;;5052640;28;20124;-74
2022/10/28 02:19:30;;;;;;;4.25;2.15;;;22.50;52.60;21.50;101376.00;;;;5051252;28;20485;-74
2022/10/28 02:22:28;;;;;;;3.28;1.85;;;22.50;52.60;21.50;101383.00;;;;5073819;28;20039;-74
2022/10/28 02:25:08;;;;;;;2.40;1.90;;;22.50;52.60;21.50;101375.00;;;;5056256;28;20039;-74
2022/10/28 02:27:43;;;;;;;2.08;1.60;;;22.50;52.60;21.50;101373.00;;;;5054698;28;20517;-74
2022/10/28 02:30:27;;;;;;;3.03;1.52;;;22.60;52.70;21.50;101372.00;;;;5068236;28;20028;-75
2022/10/28 02:32:58;;;;;;;2.45;1.50;;;22.50;52.60;21.50;101368.00;;;;5052601;28;20024;-74
2022/10/28 02:35:41;;;;;;;3.83;1.65;;;22.50;52.60;21.50;101362.00;;;;5050266;28;20040;-74
2022/10/28 02:38:10;;;;;;;4.10;1.83;;;22.50;52.60;21.50;101359.00;;;;5057119;28;20028;-74
2022/10/28 02:40:36;;;;;;;4.07;2.05;;;22.50;52.60;21.50;101357.00;;;;5039271;28;20029;-74
2022/10/28 02:43:03;;;;;;;2.03;1.83;;;22.50;52.70;21.50;101356.00;;;;5052638;28;20570;-74
2022/10/28 02:45:32;;;;;;;2.03;1.83;;;22.50;52.60;21.50;101351.00;;;;5050123;28;20215;-74
2022/10/28 02:48:03;;;;;;;2.30;1.73;;;22.50;52.60;21.50;101347.00;;;;5041337;28;20028;-74
2022/10/28 02:50:38;;;;;;;4.18;1.90;;;22.50;52.60;21.50;101348.00;;;;5051812;28;20116;-74
2022/10/28 02:53:11;;;;;;;2.53;1.85;;;22.50;52.60;21.50;101349.00;;;;5034528;28;20033;-74
2022/10/28 02:55:39;;;;;;;2.28;1.77;;;22.50;52.60;21.50;101345.00;;;;5052382;28;20035;-74
2022/10/28 02:58:04;;;;;;;2.75;1.85;;;22.60;52.70;21.60;101352.00;;;;5047788;28;20032;-74
2022/10/28 03:00:30;;;;;;;3.00;1.60;;;22.50;52.60;21.50;101361.00;;;;5050524;28;20045;-74
2022/10/28 03:02:56;;;;;;;5.07;2.00;;;22.50;52.60;21.50;101350.00;;;;5070885;28;20434;-74
2022/10/28 03:05:22;;;;;;;5.03;1.90;;;22.50;52.60;21.50;101341.00;;;;5051080;28;20119;-74
2022/10/28 03:07:47;;;;;;;3.57;1.60;;;22.50;52.60;21.50;101338.00;;;;5070334;28;20108;-74
2022/10/28 03:10:13;;;;;;;2.77;1.77;;;22.50;52.60;21.50;101331.00;;;;5069806;28;20107;-74
2022/10/28 03:12:39;;;;;;;4.27;1.80;;;22.50;52.60;21.50;101343.00;;;;5067725;28;20074;-74
2022/10/28 03:15:05;;;;;;;2.87;1.83;;;22.50;52.60;21.50;101334.00;;;;5069245;28;20887;-74
2022/10/28 03:17:31;;;;;;;4.10;2.00;;;22.60;52.60;21.50;101342.00;;;;5071079;28;20107;-74
2022/10/28 03:19:57;;;;;;;2.87;2.10;;;22.50;52.60;21.50;101342.00;;;;5068645;28;20040;-74
2022/10/28 03:22:22;;;;;;;2.73;1.80;;;22.50;52.60;21.50;101339.00;;;;5070139;28;20063;-74
2022/10/28 03:24:48;;;;;;;3.20;1.63;;;22.50;52.60;21.50;101335.00;;;;5068850;28;20120;-74
2022/10/28 03:27:14;;;;;;;4.77;1.90;;;22.60;52.70;21.50;101335.00;;;;5070568;28;20111;-74
2022/10/28 03:29:39;;;;;;;3.97;1.90;;;22.60;52.70;21.50;101335.00;;;;5069468;28;20463;-74
2022/10/28 03:32:05;;;;;;;4.70;1.77;;;22.60;52.70;21.50;101328.00;;;;5068100;28;20419;-74
2022/10/28 03:34:31;;;;;;;3.73;1.87;;;22.60;52.70;21.50;101330.00;;;;5068159;28;20497;-74
2022/10/28 03:36:57;;;;;;;3.53;2.67;;;22.50;52.60;21.50;101326.00;;;;5070462;28;20102;-74
2022/10/28 03:39:22;;;;;;;4.33;1.80;;;22.50;52.60;21.50;101331.00;;;;5068616;28;20138;-74
2022/10/28 03:41:48;;;;;;;3.73;1.77;;;22.50;52.60;21.50;101320.00;;;;5070354;28;20769;-74
2022/10/28 03:44:14;;;;;;;3.20;2.08;;;22.50;52.60;21.50;101324.00;;;;5068509;28;20041;-74
2022/10/28 03:46:40;;;;;;;1.90;1.70;;;22.50;53.30;21.50;101322.00;;;;5070344;28;20393;-74
2022/10/28 03:49:05;;;;;;;4.15;2.28;;;22.50;52.60;21.60;101321.00;;;;5069047;28;20108;-74
2022/10/28 03:51:31;;;;;;;2.47;1.93;;;22.50;52.60;21.50;101317.00;;;;5071847;28;20039;-74
2022/10/28 03:53:57;;;;;;;2.07;1.80;;;22.50;52.60;21.50;101321.00;;;;5072392;28;20551;-74
2022/10/28 03:56:23;;;;;;;2.55;1.70;;;22.50;52.60;21.60;101322.00;;;;5074237;28;20181;-74
2022/10/28 03:58:48;;;;;;;3.97;2.40;;;22.60;52.70;21.50;101315.00;;;;5073666;28;20034;-74
2022/10/28 04:01:14;;;;;;;2.50;1.65;;;22.50;52.60;21.50;101311.00;;;;5072732;28;20078;-74
2022/10/28 04:03:40;;;;;;;3.60;1.90;;;22.50;52.60;21.50;101322.00;;;;5057278;28;20097;-75
2022/10/28 04:06:06;;;;;;;3.77;2.07;;;22.50;52.60;21.60;101317.00;;;;5073261;28;20120;-74
2022/10/28 04:08:31;;;;;;;2.37;1.80;;;22.60;52.70;21.50;101321.00;;;;5073046;28;20100;-74
2022/10/28 04:10:57;;;;;;;3.57;1.63;;;22.50;52.60;21.60;101320.00;;;;5073511;28;20929;-75
2022/10/28 04:13:23;;;;;;;3.53;1.73;;;22.50;52.60;21.60;101317.00;;;;5074340;28;20553;-74
2022/10/28 04:15:49;;;;;;;3.27;1.80;;;22.50;52.60;21.50;101320.00;;;;5068017;28;20104;-74
2022/10/28 04:18:14;;;;;;;3.47;1.70;;;22.50;52.60;21.50;101315.00;;;;5071609;28;20127;-74
2022/10/28 04:20:40;;;;;;;2.90;1.60;;;22.50;52.60;21.50;101298.00;;;;5072695;28;20119;-74
2022/10/28 04:23:06;;;;;;;3.37;2.07;;;22.50;52.60;21.50;101319.00;;;;5055421;28;20092;-74
2022/10/28 04:25:32;;;;;;;2.97;2.03;;;22.50;52.60;21.60;101315.00;;;;5072509;28;20517;-74
2022/10/28 04:27:57;;;;;;;4.07;2.30;;;22.60;52.60;21.60;101319.00;;;;5073969;28;20024;-74
2022/10/28 04:30:23;;;;;;;2.73;1.87;;;22.50;52.60;21.60;101306.00;;;;5070945;28;20116;-74
2022/10/28 04:32:49;;;;;;;3.03;1.73;;;22.50;52.60;21.60;101313.00;;;;5054456;28;20374;-74
2022/10/28 04:35:15;;;;;;;3.87;1.73;;;22.60;52.70;21.60;101304.00;;;;5071543;28;20557;-74
2022/10/28 04:37:40;;;;;;;3.97;1.97;;;22.50;52.60;21.50;101315.00;;;;5073821;28;20024;-74
2022/10/28 04:40:07;;;;;;;2.67;1.83;;;22.50;52.50;21.50;101310.00;;;;5053787;28;20024;-75
2022/10/28 04:42:33;;;;;;;;;;;22.60;52.60;21.50;101321.00;;;;5074085;28;20115;-74
2022/10/28 04:44:58;;;;;;;1.60;1.45;;;22.50;52.60;21.50;101318.00;;;;5050655;28;20358;-74
2022/10/28 04:47:24;;;;;;;3.23;1.87;;;22.60;52.50;21.50;101319.00;;;;5073162;28;20031;-74
2022/10/28 04:49:50;;;;;;;3.27;1.73;;;22.60;52.60;21.50;101315.00;;;;5070794;28;20123;-74
2022/10/28 04:52:16;;;;;;;3.47;1.90;;;22.50;52.50;21.50;101315.00;;;;5072762;28;20112;-74
2022/10/28 04:54:41;;;;;;;5.87;2.30;;;22.50;52.50;21.50;101310.00;;;;5067517;28;20028;-74
2022/10/28 04:57:07;;;;;;;3.73;2.30;;;22.60;52.60;21.50;101312.00;;;;5048008;28;20052;-74
2022/10/28 04:59:33;;;;;;;3.83;1.60;;;22.50;52.60;21.50;101308.00;;;;5067956;28;20428;-74
2022/10/28 05:01:59;;;;;;;5.20;1.87;;;22.50;52.50;21.50;101314.00;;;;5068461;28;20861;-74
2022/10/28 05:04:24;;;;;;;2.77;1.83;;;22.50;52.50;21.50;101307.00;;;;5059066;28;20537;-74
2022/10/28 05:06:50;;;;;;;3.10;2.00;;;22.50;52.50;21.50;101308.00;;;;5071761;28;20024;-74
2022/10/28 05:09:16;;;;;;;5.67;1.70;;;22.50;52.50;21.50;101308.00;;;;5071069;28;20041;-74
2022/10/28 05:11:41;;;;;;;2.80;1.87;;;22.50;52.60;21.50;101308.00;;;;5072888;28;20529;-74
2022/10/28 05:14:07;;;;;;;3.07;1.47;;;22.50;52.50;21.50;101306.00;;;;5072499;28;20458;-74
2022/10/28 05:16:33;;;;;;;2.70;1.57;;;22.40;52.50;21.50;101303.00;;;;5071544;28;20488;-74
2022/10/28 05:18:59;;;;;;;2.67;1.77;;;22.50;52.50;21.50;101297.00;;;;5070683;28;20104;-74
2022/10/28 05:21:24;;;;;;;2.17;1.77;;;22.50;52.60;21.50;101296.00;;;;5072254;28;20470;-74
2022/10/28 05:23:50;;;;;;;3.50;1.93;;;22.50;52.60;21.50;101296.00;;;;5069892;28;20167;-74
2022/10/28 05:26:16;;;;;;;3.17;1.80;;;22.50;52.50;21.50;101296.00;;;;5048704;28;20588;-74
2022/10/28 05:28:42;;;;;;;2.92;2.03;;;22.50;52.50;21.50;101301.00;;;;5069894;28;20017;-74
2022/10/28 05:31:08;;;;;;;4.60;2.40;;;22.50;52.50;21.50;101306.00;;;;5068821;28;20478;-74
2022/10/28 05:33:34;;;;;;;2.42;1.70;;;22.50;52.50;21.50;101304.00;;;;5050360;28;20024;-74
2022/10/28 05:36:00;;;;;;;3.08;1.88;;;22.50;52.60;21.50;101310.00;;;;5068764;28;20390;-75
2022/10/28 05:38:26;;;;;;;4.67;2.17;;;22.50;52.50;21.50;101308.00;;;;5070417;28;20032;-75
2022/10/28 05:40:51;;;;;;;6.03;2.00;;;22.40;52.50;21.50;101298.00;;;;5049789;28;20036;-75
2022/10/28 05:43:17;;;;;;;3.70;1.90;;;22.50;52.50;21.50;101302.00;;;;5069094;28;20040;-75
2022/10/28 05:45:43;;;;;;;4.60;2.30;;;22.50;52.50;21.50;101293.00;;;;5065821;28;20562;-76
2022/10/28 05:48:09;;;;;;;5.03;2.00;;;22.50;52.50;21.50;101298.00;;;;5068526;28;20091;-76
2022/10/28 05:50:34;;;;;;;3.50;2.07;;;22.50;52.50;21.50;101290.00;;;;5049094;28;20478;-75
2022/10/28 05:53:00;;;;;;;4.37;1.90;;;22.50;52.50;21.50;101288.00;;;;5053980;28;20029;-75
2022/10/28 05:55:27;;;;;;;4.97;2.00;;;22.50;52.50;21.50;101290.00;;;;5050115;28;20505;-75
2022/10/28 05:57:52;;;;;;;;;;;22.50;52.50;21.50;101295.00;;;;5070583;28;20025;-74
2022/10/28 06:00:21;;;;;;;2.20;1.55;;;22.60;52.60;21.50;101295.00;;;;5068204;28;19923;-74
2022/10/28 06:02:46;;;;;;;3.00;1.50;;;22.50;52.40;21.50;101298.00;;;;5071151;28;20062;-74
2022/10/28 06:05:13;;;;;;;4.37;1.90;;;22.50;52.50;21.50;101297.00;;;;5069607;28;20039;-74
2022/10/28 06:07:39;;;;;;;2.83;1.50;;;22.60;52.60;21.50;101297.00;;;;5052795;28;20020;-74
2022/10/28 06:10:06;;;;;;;5.45;1.85;;;22.50;52.50;21.50;101295.00;;;;5052306;28;20023;-74
2022/10/28 06:12:31;;;;;;;4.18;1.90;;;22.50;52.50;21.50;101297.00;;;;5071762;28;20680;-74
2022/10/28 06:14:57;;;;;;;5.47;1.83;;;22.50;52.50;21.50;101298.00;;;;5069506;28;20315;-74
2022/10/28 06:17:23;;;;;;;3.90;1.73;;;22.50;52.50;21.50;101305.00;;;;5053367;28;20100;-74
2022/10/28 06:19:48;;;;;;;4.20;1.70;;;22.50;52.50;21.50;101304.00;;;;5069417;28;20035;-75
2022/10/28 06:22:14;;;;;;;4.27;2.00;;;22.50;52.50;21.50;101304.00;;;;5038975;28;20017;-74
2022/10/28 06:24:40;;;;;;;3.67;1.90;;;22.50;52.60;21.50;101310.00;;;;5070168;28;20116;-74
2022/10/28 06:27:06;;;;;;;4.00;1.90;;;22.50;52.50;21.50;101311.00;;;;5070668;28;20458;-74
2022/10/28 06:29:32;;;;;;;4.17;2.07;;;22.50;52.50;21.50;101315.00;;;;5070711;28;20485;-75
2022/10/28 06:31:58;;;;;;;;;;;22.50;52.50;21.50;101306.00;;;;5069876;28;21010;-74
2022/10/28 06:34:24;;;;;;;5.03;1.83;;;22.40;52.50;21.50;101316.00;;;;5069159;28;19923;-74
2022/10/28 06:36:50;;;;;;;4.67;1.50;;;22.50;52.50;21.50;101318.00;;;;5071477;28;20462;-74
2022/10/28 06:39:15;;;;;;;3.88;1.75;;;22.50;52.50;21.50;101317.00;;;;5070542;28;20436;-74
2022/10/28 06:41:41;;;;;;;4.20;2.23;;;22.50;52.50;21.50;101326.00;;;;5069668;28;20034;-74
2022/10/28 06:44:07;;;;;;;4.20;2.07;;;22.50;52.50;21.50;101318.00;;;;5070077;28;20031;-74
2022/10/28 06:46:33;;;;;;;5.47;2.00;;;22.50;52.50;21.50;101312.00;;;;5069780;28;21055;-74
2022/10/28 06:49:01;;;;;;;4.37;1.90;;;22.40;52.50;21.50;101319.00;;;;5051692;28;20036;-74
2022/10/28 06:51:27;;;;;;;3.05;2.00;;;22.50;52.60;21.50;101317.00;;;;5073929;28;20539;-74
2022/10/28 06:53:53;;;;;;;3.55;1.92;;;22.50;52.50;21.50;101323.00;;;;5070447;28;20444;-74
2022/10/28 06:56:19;;;;;;;4.00;1.90;;;22.50;53.30;21.50;101323.00;;;;5067798;28;20443;-75
2022/10/28 06:58:52;;;;;;;3.93;2.27;;;22.50;52.60;21.50;101324.00;;;;5052088;28;20115;-74
2022/10/28 07:01:18;;;;;;;5.28;2.15;;;22.50;52.50;21.50;101328.00;;;;5068188;28;20032;-74
2022/10/28 07:03:44;;;;;;;4.20;1.90;;;22.50;52.60;21.50;101319.00;;;;5062304;28;20020;-73
2022/10/28 07:06:09;;;;;;;6.38;2.00;;;22.50;52.60;21.50;101320.00;;;;5068871;28;20040;-74
2022/10/28 07:08:35;;;;;;;3.15;1.70;;;22.60;53.40;21.50;101322.00;;;;5052348;28;20437;-74
2022/10/28 07:11:01;;;;;;;2.73;2.00;;;22.40;52.50;21.50;101329.00;;;;5068831;28;20039;-74
2022/10/28 07:13:27;;;;;;;3.00;1.93;;;22.60;52.60;21.50;101330.00;;;;5068505;28;20500;-74
2022/10/28 07:15:58;;;;;;;4.15;1.77;;;22.50;52.60;21.50;101321.00;;;;5051600;28;20454;-74
2022/10/28 07:18:25;;;;;;;3.35;2.08;;;22.50;52.60;21.50;101323.00;;;;5050608;28;20398;-74
2022/10/28 07:20:51;;;;;;;4.82;1.67;;;22.50;52.60;21.50;101334.00;;;;5048113;28;20029;-74
2022/10/28 07:23:17;;;;;;;3.43;1.80;;;22.50;52.50;21.50;101334.00;;;;5059301;28;20074;-74
2022/10/28 07:25:43;;;;;;;3.37;1.80;;;22.50;52.60;21.50;101331.00;;;;5065846;28;20032;-73
2022/10/28 07:28:09;;;;;;;4.30;2.08;;;22.50;52.60;21.50;101332.00;;;;5050063;28;20032;-74
2022/10/28 07:30:34;;;;;;;2.47;1.67;;;22.50;52.50;21.50;101339.00;;;;5052133;28;20047;-74
2022/10/28 07:33:00;;;;;;;4.90;1.95;;;22.50;52.60;21.50;101336.00;;;;5072225;28;20024;-74
2022/10/28 07:35:27;;;;;;;3.63;2.10;;;22.50;52.60;21.50;101332.00;;;;5076670;28;20045;-73
2022/10/28 07:37:53;;;;;;;;;;;22.50;52.60;21.50;101343.00;;;;5055736;28;20146;-74
2022/10/28 07:40:20;;;;;;;5.32;2.10;;;22.60;52.70;21.50;101343.00;;;;5070364;28;20015;-74
2022/10/28 07:42:46;;;;;;;7.15;2.45;;;22.50;52.50;21.50;101340.00;;;;5071722;28;20024;-74
2022/10/28 07:45:11;;;;;;;6.27;2.40;;;22.50;52.50;21.50;101343.00;;;;5070828;28;20036;-74
2022/10/28 07:47:37;;;;;;;3.60;2.00;;;22.50;52.60;21.50;101343.00;;;;5074203;28;20035;-74
2022/10/28 07:50:03;;;;;;;7.37;2.63;;;22.50;52.60;21.50;101339.00;;;;5073456;28;20031;-73
2022/10/28 07:52:29;;;;;;;4.65;2.60;;;22.50;52.60;21.50;101342.00;;;;5073435;28;20465;-73
2022/10/28 07:54:55;;;;;;;3.97;1.70;;;22.50;52.60;21.50;101345.00;;;;5072595;28;20035;-74
2022/10/28 07:57:21;;;;;;;7.67;2.40;;;22.50;52.60;21.50;101348.00;;;;5072696;28;20036;-74
2022/10/28 07:59:46;;;;;;;5.97;2.23;;;22.50;52.70;21.50;101338.00;;;;5078744;28;20127;-74
2022/10/28 08:02:21;;;;;;;5.70;2.23;;;22.50;52.70;21.50;101349.00;;;;5080709;28;20541;-74
2022/10/28 08:04:47;;;;;;;3.78;1.90;;;22.50;52.70;21.50;101345.00;;;;5054585;28;20482;-74
2022/10/28 08:07:12;;;;;;;6.55;2.50;;;22.50;52.70;21.50;101346.00;;;;5073949;28;20028;-74
2022/10/28 08:09:39;;;;;;;8.15;2.63;;;22.50;52.70;21.50;101342.00;;;;5036956;28;20111;-75
2022/10/28 08:12:05;;;;;;;6.03;2.15;;;22.50;52.70;21.50;101348.00;;;;5058450;28;20385;-74
2022/10/28 08:14:31;;;;;;;;;;;22.50;52.70;21.50;101341.00;;;;5073582;28;20056;-74
2022/10/28 08:16:57;;;;;;;7.03;2.38;;;22.50;52.70;21.50;101346.00;;;;5072030;28;19958;-74
2022/10/28 08:19:22;;;;;;;6.23;2.20;;;22.50;52.70;21.50;101342.00;;;;5051950;28;20039;-74
2022/10/28 08:21:48;;;;;;;5.13;2.13;;;22.50;52.70;21.50;101346.00;;;;5072163;28;20991;-74
2022/10/28 08:24:14;;;;;;;7.17;2.60;;;22.50;52.70;21.50;101347.00;;;;5069927;28;20108;-74
2022/10/28 08:26:40;;;;;;;4.28;2.42;;;22.50;52.70;21.50;101340.00;;;;5071871;28;20027;-74
2022/10/28 08:29:06;;;;;;;4.40;1.90;;;22.50;52.80;21.50;101336.00;;;;5071264;28;20060;-75
2022/10/28 08:31:33;;;;;;;7.28;2.35;;;22.50;52.70;21.50;101330.00;;;;5073863;28;20032;-74
2022/10/28 08:33:58;;;;;;;8.45;2.78;;;22.50;52.80;21.50;101337.00;;;;5055204;28;20458;-73
2022/10/28 08:36:24;;;;;;;6.93;2.87;;;22.50;52.80;21.50;101332.00;;;;5071197;28;20036;-74
2022/10/28 08:38:50;;;;;;;11.57;3.23;;;22.50;52.80;21.50;101333.00;;;;5061920;28;20028;-74
2022/10/28 08:41:39;;;;;;;5.07;2.20;;;22.50;52.80;21.50;101334.00;;;;5072129;28;20107;-74
2022/10/28 08:44:41;;;;;;;4.95;2.28;;;22.50;52.90;21.50;101337.00;;;;5053763;28;20029;-73
2022/10/28 08:47:34;;;;;;;5.82;2.05;;;22.50;52.90;21.50;101334.00;;;;5072317;28;20120;-74
2022/10/28 08:50:19;;;;;;;7.57;2.47;;;22.50;52.80;21.50;101337.00;;;;5052369;28;20074;-74
2022/10/28 08:52:57;;;;;;;5.35;1.80;;;22.50;52.90;21.50;101330.00;;;;5036051;28;20055;-74
2022/10/28 08:55:35;;;;;;;4.40;2.30;;;22.50;52.90;21.50;101340.00;;;;5052000;28;20035;-74
2022/10/28 08:58:12;;;;;;;6.22;2.10;;;22.50;52.90;21.50;101333.00;;;;5037437;28;20047;-74
2022/10/28 09:00:37;;;;;;;6.70;2.40;;;22.60;53.10;21.50;101325.00;;;;5053835;28;20131;-74
2022/10/28 09:03:12;;;;;;;5.53;2.10;;;22.60;53.10;21.50;101334.00;;;;5061802;28;20029;-74
2022/10/28 09:05:48;;;;;;;5.07;2.15;;;22.50;53.00;21.50;101330.00;;;;5069576;28;20959;-74
2022/10/28 09:08:25;;;;;;;6.22;2.00;;;22.50;53.00;21.50;101336.00;;;;5050036;28;20028;-74
2022/10/28 09:11:09;;;;;;;5.88;2.22;;;22.50;53.00;21.50;101334.00;;;;5052413;28;20059;-74
2022/10/28 09:13:49;;;;;;;7.68;2.80;;;22.50;53.10;21.50;101343.00;;;;5073474;28;20016;-74
2022/10/28 09:16:45;;;;;;;5.97;2.75;;;22.50;53.10;21.50;101339.00;;;;5071389;28;20024;-74
2022/10/28 09:19:45;;;;;;;5.32;2.60;;;22.50;53.10;21.50;101346.00;;;;5037658;28;20122;-74
2022/10/28 09:22:33;;;;;;;6.47;2.42;;;22.50;53.20;21.50;101340.00;;;;5038867;28;20066;-74
2022/10/28 09:25:02;;;;;;;4.85;2.15;;;22.50;53.10;21.50;101333.00;;;;5039670;28;20390;-74
2022/10/28 09:27:46;;;;;;;7.22;2.45;;;22.50;53.10;21.50;101330.00;;;;5054484;28;20047;-74
2022/10/28 09:30:36;;;;;;;4.63;2.78;;;22.60;53.20;21.50;101330.00;;;;5070382;28;20055;-74
2022/10/28 09:33:37;;;;;;;5.82;2.58;;;22.50;53.20;21.50;101331.00;;;;5053405;28;20039;-75
2022/10/28 09:36:03;;;;;;;3.95;2.08;;;22.60;53.40;21.50;101325.00;;;;5067942;28;20155;-74
2022/10/28 09:38:33;;;;;;;6.35;2.38;;;22.60;53.30;21.50;101326.00;;;;5047258;28;20037;-74
2022/10/28 09:41:23;;;;;;;4.57;1.92;;;22.60;53.30;21.50;101321.00;;;;5049263;28;20303;-74
2022/10/28 09:44:18;;;;;;;7.78;2.50;;;22.60;53.40;21.50;101324.00;;;;5035207;28;20086;-74
2022/10/28 09:46:49;;;;;;;3.88;1.80;;;22.60;53.40;21.50;101318.00;;;;5055587;28;20029;-74
2022/10/28 09:49:23;;;;;;;8.77;2.95;;;22.60;53.30;21.50;101322.00;;;;5056684;28;20056;-74
2022/10/28 09:52:22;;;;;;;7.07;2.75;;;22.60;53.40;21.50;101316.00;;;;5023251;28;20025;-74
2022/10/28 09:54:50;;;;;;;5.70;2.53;;;22.60;53.40;21.50;101332.00;;;;5030619;28;20542;-74
2022/10/28 09:57:16;;;;;;;7.00;2.60;;;22.60;53.40;21.50;101330.00;;;;5072148;28;20104;-74
2022/10/28 09:59:42;;;;;;;7.90;2.90;;;22.60;53.60;21.50;101325.00;;;;5055844;28;20032;-74
2022/10/28 10:02:28;;;;;;;7.97;2.37;;;22.60;53.60;21.60;101325.00;;;;5073408;28;20131;-74
2022/10/28 10:04:55;;;;;;;3.88;2.20;;;22.70;53.60;21.60;101326.00;;;;5048461;28;20044;-74
2022/10/28 10:07:49;;;;;;;7.05;2.40;;;22.70;53.70;21.60;101344.00;;;;5078669;28;20282;-74
2022/10/28 10:10:46;;;;;;;10.10;2.03;;;22.60;53.70;21.60;101345.00;;;;5051759;28;20029;-74
2022/10/28 10:13:12;;;;;;;7.43;2.33;;;22.70;53.60;21.60;101343.00;;;;5032586;28;20033;-74
2022/10/28 10:16:00;;;;;;;6.03;2.58;;;22.70;53.50;21.60;101341.00;;;;5058643;28;20039;-74
2022/10/28 10:18:31;;;;;;;8.65;2.35;;;22.60;53.60;21.60;101339.00;;;;5051042;28;20067;-74
2022/10/28 10:20:57;;;;;;;9.75;2.70;;;22.70;53.60;21.60;101340.00;;;;5052607;28;20036;-74
2022/10/28 10:23:36;;;;;;;5.78;2.63;;;22.70;53.50;21.60;101343.00;;;;5067018;28;20047;-74
2022/10/28 10:26:10;;;;;;;7.47;2.60;;;22.70;53.50;21.60;101335.00;;;;5045798;28;20055;-74
2022/10/28 10:28:43;;;;;;;3.17;2.00;;;22.70;53.40;21.60;101340.00;;;;5054504;28;20020;-74
2022/10/28 10:31:17;;;;;;;5.22;2.47;;;22.70;53.50;21.60;101339.00;;;;5039723;28;20025;-75
2022/10/28 10:33:43;;;;;;;7.32;2.20;;;22.70;53.50;21.60;101333.00;;;;5050321;28;20355;-74
2022/10/28 10:36:08;;;;;;;6.37;2.97;;;22.70;53.40;21.60;101335.00;;;;5039425;28;20032;-74
2022/10/28 10:38:34;;;;;;;4.90;2.07;;;22.80;53.50;21.60;101333.00;;;;5071123;28;20103;-74
2022/10/28 10:41:00;;;;;;;5.45;2.40;;;22.70;53.50;21.60;101336.00;;;;5051142;28;20028;-74
2022/10/28 10:43:33;;;;;;;6.85;2.53;;;22.70;53.50;21.60;101330.00;;;;5052364;28;20044;-74
2022/10/28 10:46:23;;;;;;;4.63;2.20;;;22.80;53.50;21.60;101338.00;;;;5069989;28;20025;-74
2022/10/28 10:49:13;;;;;;;6.45;2.75;;;22.80;53.60;21.60;101335.00;;;;5069081;28;20095;-74
2022/10/28 10:51:40;;;;;;;5.90;2.67;;;22.80;53.60;21.70;101337.00;;;;5053326;28;20361;-74
2022/10/28 10:54:12;;;;;;;6.03;2.47;;;22.80;53.60;21.60;101333.00;;;;5069965;28;20031;-74
2022/10/28 10:56:38;;;;;;;7.57;2.38;;;22.70;53.50;21.60;101334.00;;;;5034865;28;20389;-73
2022/10/28 10:59:04;;;;;;;5.70;2.63;;;22.70;53.50;21.70;101333.00;;;;5064061;28;20035;-74
2022/10/28 11:01:35;;;;;;;4.38;2.20;;;22.80;53.50;21.70;101325.00;;;;5053023;28;20458;-74
2022/10/28 11:04:06;;;;;;;6.80;2.33;;;22.80;53.50;21.70;101326.00;;;;5049739;28;20497;-74